DRI-NNSC Building Weather observations

Data are for 10 minute period ending at time listed.
 Day   Time   Solar   Ave.   Ave.  Ave.  Vector  Max.   Baro.   Total    
  of    of     Rad.   Air    Rel.  Wind   Wind   Wind  Press.  Precip.   
Year   Day            Temp.  Hum.  Speed  Dir.   Gust                    
2015   (PST)  Kw/m2    F      %     mph   deg.    mph    mb.     in.     
-------------------------------------------------------------------------
  63    3:00   0.00   30.4    52    3.3    62      4   850.3    0.00 
  63    3:10   0.00   29.8    54    1.3    92      3   850.3    0.00 
  63    3:20   0.00   28.7    58    0.2   126      2   850.3    0.00 
  63    3:30   0.00   28.8    57    0.7   261      2   850.3    0.00 
  63    3:40   0.00   29.1    56    1.3   318      2   850.3    0.00 
  63    3:50   0.00   29.6    54    1.1   341      2   850.4    0.00 
  63    4:00   0.00   29.7    53    1.1     2      1   850.5    0.00 
  63    4:10   0.00   29.9    53    2.3    44      3   850.6    0.00 
  63    4:20   0.00   29.8    53    2.0    41      3   850.7    0.00 
  63    4:30   0.00   29.6    54    2.5    42      4   850.8    0.00 
  63    4:40   0.00   29.9    52    2.8    64      4   851.0    0.00 
  63    4:50   0.00   29.2    54    2.9    64      3   851.1    0.00 
  63    5:00   0.00   28.6    56    3.1    64      4   851.1    0.00 
  63    5:10   0.00   28.4    56    2.4    72      4   851.1    0.00 
  63    5:20   0.00   26.8    62    1.4   151      3   851.2    0.00 
  63    5:30   0.00   27.4    60    2.2    64      4   851.2    0.00 
  63    5:40   0.00   27.2    60    2.6    63      4   851.3    0.00 
  63    5:50   0.00   27.1    61    3.5    59      4   851.3    0.00 
  63    6:00   0.00   26.7    62    4.2    69      5   851.4    0.00 
  63    6:10   0.00   26.4    64    2.7   145      4   851.5    0.00 
  63    6:20   0.00   24.6    69    1.0   199      3   851.6    0.00 
  63    6:30   0.00   24.5    71    0.9   355      2   851.6    0.00 
  63    6:40   0.01   25.2    68    1.2   261      2   851.7    0.00 
  63    6:50   0.02   25.5    68    1.6   328      2   851.8    0.00 
  63    7:00   0.05   26.2    66    2.6    11      4   851.9    0.00 
  63    7:10   0.07   26.9    65    4.8    62      6   851.9    0.00 
  63    7:20   0.11   27.5    64    3.1    80      5   852.1    0.00 
  63    7:30   0.13   27.5    65    2.3   191      5   852.4    0.00 
  63    7:40   0.16   27.1    66    2.1   318      4   852.5    0.00 
  63    7:50   0.18   28.6    62    1.6     8      4   852.6    0.00 
  63    8:00   0.23   30.2    58    1.5   180      3   852.8    0.00 
  63    8:10   0.26   30.3    58    1.5   182      2   852.9    0.00 
  63    8:20   0.29   32.0    55    0.7   174      2   852.9    0.00 
  63    8:30   0.33   33.5    53    1.3   100      4   853.0    0.00 
  63    8:40   0.36   32.5    56    2.4    74      4   853.2    0.00 
  63    8:50   0.39   32.3    56    3.4    85      5   853.4    0.00 
  63    9:00   0.42   33.3    53    2.3    88      4   853.4    0.00 
  63    9:10   0.45   34.6    48    2.0   114      4   853.4    0.00 
  63    9:20   0.48   34.9    46    3.0   125      5   853.5    0.00 
  63    9:30   0.51   35.3    45    2.6   139      4   853.6    0.00 
  63    9:40   0.53   36.5    45    2.3   139      5   853.6    0.00 
  63    9:50   0.56   36.4    43    2.6   111      6   853.6    0.00 
  63   10:00   0.58   37.7    42    2.6   148      6   853.5    0.00 
  63   10:10   0.60   38.6    41    3.1   166      6   853.4    0.00 
  63   10:20   0.62   38.7    40    2.5   147      5   853.3    0.00 
  63   10:30   0.64   39.4    38    1.4   190      5   853.2    0.00 
  63   10:40   0.66   40.2    36    3.6   135      7   853.3    0.00 
  63   10:50   0.68   40.3    35    4.6   135      9   853.3    0.00 
  63   11:00   0.69   40.7    35    5.1   132     10   853.2    0.00 
  63   11:10   0.70   41.0    33    4.3   120      9   853.1    0.00 
  63   11:20   0.71   41.2    32    7.2   125     12   853.1    0.00 
  63   11:30   0.72   42.5    31    6.3   151     13   853.1    0.00 
  63   11:40   0.73   42.3    31    7.2   139     12   853.1    0.00 
  63   11:50   0.73   42.6    32    7.0   127     12   853.0    0.00 
  63   12:00   0.74   44.0    30    6.1   130     14   853.1    0.00 
  63   12:10   0.74   44.6    29    4.6   148     11   853.0    0.00 
  63   12:20   0.75   45.8    28    5.0   150      9   852.9    0.00 
  63   12:30   0.74   45.7    28    5.5   114     12   852.8    0.00 
  63   12:40   0.73   45.2    28    7.0   114     12   852.8    0.00 
  63   12:50   0.73   45.9    26    5.3   124     11   852.6    0.00 
  63   13:00   0.73   46.2    25    6.2   111     11   852.6    0.00 
  63   13:10   0.72   46.7    24    6.5   126     13   852.5    0.00 
  63   13:20   0.71   47.4    23    2.9   124      8   852.4    0.00 
  63   13:30   0.70   48.7    22    2.8   110      7   852.4    0.00 
  63   13:40   0.69   49.1    21    5.6   133     11   852.3    0.00 
  63   13:50   0.67   49.3    20    3.4   115      8   852.2    0.00 
  63   14:00   0.65   48.6    22    5.1    79     10   852.1    0.00 
  63   14:10   0.63   48.8    22    6.1    86     13   852.0    0.00 
  63   14:20   0.61   49.1    21    5.6   101     11   852.1    0.00 
  63   14:30   0.59   49.8    20    3.6    93      9   852.2    0.00 
  63   14:40   0.57   49.4    22    5.4    49     10   852.2    0.00 
  63   14:50   0.55   49.3    21    4.7    56      9   852.2    0.00 
  63   15:00   0.52   49.4    22    6.4    88     12   852.3    0.00 
  63   15:10   0.50   49.3    21    5.0    64     11   852.3    0.00 
  63   15:20   0.47   49.4    21    4.3    60     10   852.3    0.00 
  63   15:30   0.44   49.4    22    5.4    42      9   852.3    0.00 
  63   15:40   0.41   49.6    21    5.8   111     10   852.3    0.00 
  63   15:50   0.38   49.5    21    3.4    70      8   852.4    0.00 
  63   16:00   0.34   49.7    22    4.8    60     10   852.5    0.00 
  63   16:10   0.31   49.4    22    5.2    63      9   852.5    0.00 
  63   16:20   0.28   49.4    21    5.5    89     10   852.5    0.00 
  63   16:30   0.25   49.5    21    4.2    98      7   852.5    0.00 
  63   16:40   0.21   49.1    23    5.9    94     10   852.5    0.00 
  63   16:50   0.18   48.3    25    4.8    50      8   852.5    0.00 
  63   17:00   0.15   48.4    25    3.5    50      7   852.5    0.00 
  63   17:10   0.12   48.1    25    3.6    94      9   852.6    0.00 
  63   17:20   0.10   47.6    27    2.7    80      7   852.7    0.00 
  63   17:30   0.07   47.2    28    2.6    80      6   852.8    0.00 
  63   17:40   0.04   46.4    30    1.8    78      4   852.8    0.00 
  63   17:50   0.01   44.6    33    3.2    44      6   852.9    0.00 
  63   18:00   0.01   43.8    35    5.0    40      7   852.9    0.00 
  63   18:10   0.00   43.0    37    2.9    48      6   853.0    0.00 
  63   18:20   0.00   42.7    37    3.3    55      5   853.1    0.00 
  63   18:30   0.00   41.9    39    2.3    50      4   853.3    0.00 
  63   18:40   0.00   41.3    40    2.4    37      4   853.4    0.00 
  63   18:50   0.00   40.6    41    2.4    21      6   853.5    0.00 
  63   19:00   0.00   41.0    39    3.2    23      5   853.7    0.00 
  63   19:10   0.00   40.6    39    1.9    33      4   853.8    0.00 
  63   19:20   0.00   40.2    40    2.2    35      5   854.0    0.00 
  63   19:30   0.00   40.2    39    2.8    42      6   854.1    0.00 
  63   19:40   0.00   40.6    38    2.6    45      5   854.1    0.00 
  63   19:50   0.00   40.5    37    2.9    53      6   854.2    0.00 
  63   20:00   0.00   40.0    38    4.3    40      6   854.3    0.00 
  63   20:10   0.00   39.6    38    5.1    34      7   854.4    0.00 
  63   20:20   0.00   39.3    37    4.6    35      7   854.5    0.00 
  63   20:30   0.00   39.4    36    4.8    29      8   854.7    0.00 
  63   20:40   0.00   39.3    35    5.3    27      8   854.8    0.00 
  63   20:50   0.00   39.1    35    5.6    27      8   854.9    0.00 
  63   21:00   0.00   39.1    34    5.6    40      8   855.0    0.00 
  63   21:10   0.00   38.8    34    4.3    46      7   855.2    0.00 
  63   21:20   0.00   38.7    35    4.5    47      8   855.3    0.00 
  63   21:30   0.00   38.3    36    4.7    41      8   855.4    0.00 
  63   21:40   0.00   37.8    36    4.3    47      7   855.5    0.00 
  63   21:50   0.00   37.9    36    3.5    51      6   855.5    0.00 
  63   22:00   0.00   38.2    35    3.5    67      6   855.5    0.00 
  63   22:10   0.00   38.0    35    3.5    74      5   855.6    0.00 
  63   22:20   0.00   38.0    35    3.0    59      4   855.7    0.00 
  63   22:30   0.00   37.5    36    3.6    59      4   855.7    0.00 
  63   22:40   0.00   37.2    36    3.5    48      5   855.8    0.00 
  63   22:50   0.00   37.4    36    3.1    57      5   855.8    0.00 
  63   23:00   0.00   37.3    36    2.8    66      4   855.8    0.00 
  63   23:10   0.00   36.7    37    2.9    43      4   855.9    0.00 
  63   23:20   0.00   36.7    37    1.8    64      2   855.8    0.00 
  63   23:30   0.00   37.2    36    2.3    65      3   855.8    0.00 
  63   23:40   0.00   36.2    38    2.8    37      4   855.9    0.00 
  63   23:50   0.00   35.4    40    2.8    27      4   856.0    0.00 
  64    0:00   0.00   36.0    39    1.3    28      3   856.0    0.00 
  64    0:10   0.00   36.3    38    0.7   320      2   856.1    0.00 
  64    0:20   0.00   36.1    38    0.3    25      1   856.2    0.00 
  64    0:30   0.00   36.1    38    1.3   335      2   856.3    0.00 
  64    0:40   0.00   36.3    37    0.3    26      1   856.3    0.00 
  64    0:50   0.00   35.5    40    0.9   276      2   856.3    0.00 
  64    1:00   0.00   35.9    38    0.5   276      1   856.4    0.00 
  64    1:10   0.00   35.7    39    0.8   239      2   856.5    0.00 
  64    1:20   0.00   35.0    42    0.8   183      3   856.5    0.00 
  64    1:30   0.00   32.7    50    0.8   220      2   856.5    0.00 
  64    1:40   0.00   32.7    50    0.5   186      2   856.5    0.00 
  64    1:50   0.00   33.2    47    1.0   180      2   856.5    0.00 
  64    2:00   0.00   33.4    47    1.1   156      2   856.5    0.00 
  64    2:10   0.00   33.2    48    0.5   153      2   856.6    0.00 
  64    2:20   0.00   33.2    48    1.5   131      2   856.5    0.00 
  64    2:30   0.00   31.7    52    2.3   109      3   856.5    0.00 
  64    2:40   0.00   31.7    52    3.6    56      4   856.5    0.00 
  64    2:50   0.00   32.4    50    3.5    49      4   856.5    0.00 

Return to NNSC graphs page.


Western Regional Climate Center,wrcc@dri.edu